Time;durP1;ratioP1;P1;durP2;ratioP2;P2;SDS_P1;SDS_P2;PMS_P1;PMS_P2;Temp;Humidity;BMP_temperature;BMP_pressure;BME280_temperature;BME280_humidity;BME280_pressure;Samples;Min_cycle;Max_cycle;Signal;HPM_P1;HPM_P2
2021/03/29 00:01:53;;;;;;;4.93;2.30;;;11.30;83.90;;;9.77;100.00;101543.72;4968592;28;100353;-58
2021/03/29 00:08:37;;;;;;;7.20;2.50;;;11.30;84.10;;;9.73;100.00;101537.78;4989334;28;100331;-59
2021/03/29 00:15:58;;;;;;;4.97;2.20;;;11.30;84.30;;;9.79;100.00;101539.09;4933567;28;101290;-60
2021/03/29 00:19:39;;;;;;;6.33;2.57;;;11.30;84.50;;;9.73;100.00;101545.78;4968911;28;100099;-60
2021/03/29 00:22:50;;;;;;;4.30;2.20;;;11.30;84.70;;;9.73;100.00;101549.31;4966908;27;100242;-60
2021/03/29 00:26:03;;;;;;;5.10;2.37;;;11.20;84.90;;;9.73;100.00;101554.66;4987220;28;101587;-59
2021/03/29 00:29:15;;;;;;;5.93;2.47;;;11.20;85.00;;;9.67;100.00;101549.78;4950029;28;101637;-59
2021/03/29 00:32:50;;;;;;;8.27;2.67;;;11.20;85.20;;;9.66;100.00;101549.91;4968929;28;100327;-59
2021/03/29 00:36:20;;;;;;;7.23;2.23;;;11.20;85.40;;;9.66;100.00;101553.44;4910099;28;100795;-58
2021/03/29 00:39:37;;;;;;;6.03;2.50;;;11.20;85.60;;;9.63;100.00;101547.50;4922828;28;101550;-59
2021/03/29 00:42:50;;;;;;;3.37;2.20;;;11.20;85.80;;;9.60;100.00;101551.25;4924704;28;100537;-57
2021/03/29 00:46:03;;;;;;;4.20;2.40;;;11.20;86.10;;;9.54;100.00;101542.84;4969748;28;100063;-58
2021/03/29 00:49:16;;;;;;;5.67;2.10;;;11.20;86.20;;;9.58;100.00;101553.19;4988069;28;100614;-59
2021/03/29 00:55:56;;;;;;;4.60;2.27;;;11.20;86.30;;;9.57;100.00;101550.63;4987564;28;101543;-59
2021/03/29 00:59:09;;;;;;;7.43;2.03;;;11.20;86.40;;;9.53;100.00;101552.69;4978452;28;100229;-60
2021/03/29 01:06:40;;;;;;;5.57;2.10;;;11.10;86.60;;;9.52;100.00;101561.69;4966260;28;100732;-59
2021/03/29 01:13:49;;;;;;;6.20;2.23;;;11.10;86.90;;;9.47;100.00;101552.34;4915301;28;100475;-59
2021/03/29 01:17:07;;;;;;;7.07;2.37;;;11.10;87.00;;;9.47;100.00;101557.69;4965862;28;100308;-59
2021/03/29 01:20:39;;;;;;;5.73;2.20;;;11.10;87.00;;;9.44;100.00;101552.56;4967995;28;100878;-59
2021/03/29 01:23:59;;;;;;;5.97;2.57;;;11.10;87.20;;;9.51;100.00;101556.47;4960362;28;100334;-58
2021/03/29 01:27:24;;;;;;;4.37;2.67;;;11.10;86.70;;;9.52;100.00;101564.34;4969517;28;100224;-59
2021/03/29 01:30:52;;;;;;;5.90;2.63;;;11.00;86.40;;;9.46;100.00;101562.19;4967844;28;100161;-60
2021/03/29 01:34:03;;;;;;;4.97;2.40;;;11.10;86.60;;;9.45;100.00;101556.94;4983925;27;100940;-58
2021/03/29 01:37:41;;;;;;;5.37;2.30;;;11.10;86.60;;;9.44;100.00;101550.75;4984418;28;100402;-59
2021/03/29 01:41:00;;;;;;;4.30;2.10;;;11.00;86.30;;;9.52;100.00;101555.50;4885605;28;100247;-58
2021/03/29 01:44:13;;;;;;;3.87;1.83;;;11.00;86.30;;;9.55;100.00;101555.25;4951851;28;100470;-58
2021/03/29 01:47:37;;;;;;;5.77;2.33;;;11.10;85.60;;;9.46;100.00;101553.31;4944461;28;101131;-60
2021/03/29 01:50:53;;;;;;;5.17;2.63;;;11.10;86.00;;;9.40;100.00;101557.28;4986051;28;100805;-57
2021/03/29 01:54:29;;;;;;;3.90;2.03;;;11.10;85.90;;;9.36;100.00;101561.19;4967034;28;100367;-58
2021/03/29 02:01:01;;;;;;;5.70;2.07;;;11.00;86.50;;;9.29;100.00;101566.16;4980897;28;101106;-58
2021/03/29 02:04:29;;;;;;;5.40;2.73;;;11.00;86.70;;;9.26;100.00;101569.09;4940974;28;100596;-58
2021/03/29 02:11:56;;;;;;;5.87;2.40;;;11.00;87.00;;;9.24;100.00;101554.13;4981395;28;100280;-59
2021/03/29 02:15:07;;;;;;;6.93;2.30;;;10.90;87.20;;;9.15;100.00;101555.69;4898674;28;100783;-59
2021/03/29 02:18:27;;;;;;;4.83;2.30;;;10.90;87.40;;;9.17;100.00;101555.56;4885297;28;100549;-59
2021/03/29 02:25:09;;;;;;;6.13;2.33;;;10.80;88.10;;;9.20;100.00;101553.50;4962853;28;100173;-59
2021/03/29 02:28:22;;;;;;;5.17;2.00;;;10.80;88.00;;;9.24;100.00;101555.00;4966743;28;100887;-58
2021/03/29 02:31:46;;;;;;;8.20;2.60;;;10.80;87.80;;;9.26;100.00;101549.53;4967442;28;100471;-57
2021/03/29 02:35:19;;;;;;;3.27;2.00;;;10.80;87.40;;;9.22;100.00;101556.06;4959136;28;100162;-58
2021/03/29 02:38:31;;;;;;;5.83;2.30;;;10.80;87.80;;;9.19;100.00;101548.28;4967833;28;100324;-59
2021/03/29 02:45:12;;;;;;;5.43;2.40;;;10.80;87.60;;;9.37;100.00;101549.53;4972148;28;100338;-58
2021/03/29 02:52:36;;;;;;;3.13;1.90;;;10.90;87.00;;;9.36;100.00;101553.19;4961720;28;100469;-57
2021/03/29 02:56:02;;;;;;;4.20;2.10;;;10.90;87.00;;;9.48;100.00;101549.56;4964900;28;102052;-58
2021/03/29 02:59:18;;;;;;;5.97;2.07;;;10.90;86.60;;;9.47;100.00;101545.19;4969751;28;100764;-59
2021/03/29 03:02:42;;;;;;;3.60;1.90;;;10.90;86.50;;;9.56;100.00;101547.13;4961257;28;100389;-58
2021/03/29 03:06:20;;;;;;;6.43;2.30;;;10.90;85.80;;;9.53;100.00;101549.16;4947108;28;100562;-58
2021/03/29 03:09:33;;;;;;;4.77;2.63;;;11.00;86.10;;;9.52;100.00;101552.84;4958890;28;100856;-58
2021/03/29 03:13:01;;;;;;;4.40;2.20;;;11.00;85.80;;;9.60;100.00;101548.59;4961836;28;101400;-57
2021/03/29 03:16:24;;;;;;;5.80;2.30;;;11.00;86.00;;;9.63;100.00;101559.03;4943797;28;100155;-57
2021/03/29 03:22:59;;;;;;;4.60;2.30;;;11.10;84.90;;;9.59;100.00;101562.06;4948838;28;101407;-60
2021/03/29 03:26:17;;;;;;;4.27;1.80;;;11.10;85.10;;;9.67;100.00;101560.47;4957082;28;101438;-57
2021/03/29 03:29:30;;;;;;;6.47;2.50;;;11.10;84.50;;;9.60;100.00;101567.28;4950086;28;100491;-59
2021/03/29 03:32:47;;;;;;;3.83;2.03;;;11.10;85.00;;;9.72;100.00;101557.44;4949317;28;100313;-57
2021/03/29 03:35:59;;;;;;;4.97;2.13;;;11.10;84.60;;;9.68;100.00;101564.00;4949288;28;100719;-58
2021/03/29 03:39:23;;;;;;;4.30;2.00;;;11.20;84.30;;;9.69;100.00;101561.22;4950352;28;100178;-58
2021/03/29 03:42:41;;;;;;;5.67;2.37;;;11.20;84.50;;;9.76;100.00;101566.09;4954012;28;100235;-60
2021/03/29 03:53:16;;;;;;;5.37;2.50;;;11.20;86.30;;;9.73;100.00;101570.69;4955819;28;101112;-58
2021/03/29 04:03:44;;;;;;;5.27;1.87;;;11.10;91.20;;;9.74;100.00;101571.56;4950459;28;101678;-59
2021/03/29 04:07:02;;;;;;;9.03;2.50;;;11.00;91.90;;;9.64;100.00;101573.25;4968352;28;100588;-57
2021/03/29 04:14:08;;;;;;;6.33;2.13;;;10.90;92.50;;;9.56;100.00;101562.28;4983251;28;99914;-59
2021/03/29 04:28:51;;;;;;;6.50;2.60;;;10.90;92.60;;;9.60;100.00;101566.44;4963386;28;100201;-58
2021/03/29 04:39:37;;;;;;;4.70;2.17;;;10.80;93.20;;;9.32;100.00;101571.25;4962156;28;100737;-58
2021/03/29 04:42:54;;;;;;;6.13;2.30;;;10.80;93.00;;;9.40;100.00;101567.97;4980577;28;100218;-58
2021/03/29 04:46:05;;;;;;;6.97;2.23;;;10.80;92.60;;;9.44;100.00;101574.78;4964943;28;100490;-57
2021/03/29 04:49:32;;;;;;;5.03;2.30;;;10.80;92.50;;;9.44;100.00;101565.94;4947252;28;103214;-58
2021/03/29 05:00:40;;;;;;;11.30;2.20;;;10.90;91.90;;;9.44;100.00;101576.63;4898308;28;101178;-57
2021/03/29 05:04:02;;;;;;;6.07;2.33;;;10.90;91.90;;;9.40;100.00;101570.66;4885964;28;100746;-58
2021/03/29 05:15:03;;;;;;;6.07;2.40;;;10.80;92.10;;;9.18;100.00;101576.81;4884629;28;100924;-59
2021/03/29 05:25:55;;;;;;;8.17;2.93;;;10.70;92.90;;;9.15;100.00;101573.56;4943069;28;100410;-57
2021/03/29 05:33:31;;;;;;;6.63;2.47;;;10.70;93.20;;;9.22;100.00;101582.78;4961170;28;101194;-57
2021/03/29 05:43:44;;;;;;;8.33;3.00;;;10.70;93.40;;;9.25;100.00;101590.56;4961054;28;101123;-58
2021/03/29 05:46:57;;;;;;;6.47;2.83;;;10.70;93.50;;;9.33;100.00;101589.00;4955742;28;100921;-58
2021/03/29 05:50:14;;;;;;;6.13;2.80;;;10.70;93.30;;;9.43;100.00;101585.59;4961769;28;100286;-60
2021/03/29 05:53:25;;;;;;;7.27;3.03;;;10.70;93.20;;;9.53;100.00;101589.25;4958242;28;100570;-56
2021/03/29 05:56:38;;;;;;;6.60;3.13;;;10.70;93.40;;;9.52;100.00;101592.91;4956890;28;100962;-59
2021/03/29 05:59:49;;;;;;;6.57;3.03;;;10.80;93.20;;;9.67;100.00;101586.34;4961525;28;100601;-59
2021/03/29 06:03:13;;;;;;;7.47;3.03;;;10.80;92.90;;;9.72;100.00;101593.06;4960675;28;100410;-58
2021/03/29 06:06:40;;;;;;;6.03;2.83;;;11.00;92.60;;;9.83;100.00;101597.53;4960941;28;100210;-59
2021/03/29 06:09:53;;;;;;;6.53;2.60;;;11.10;92.20;;;9.93;100.00;101586.97;4959322;28;101292;-60
2021/03/29 06:13:23;;;;;;;5.63;2.70;;;11.20;91.90;;;9.98;100.00;101595.47;4953491;28;100427;-58
2021/03/29 06:16:43;;;;;;;7.17;2.63;;;11.30;91.10;;;10.07;100.00;101598.25;4958062;28;100229;-59
2021/03/29 06:20:02;;;;;;;6.07;2.43;;;11.40;91.00;;;10.14;100.00;101592.44;4958571;28;101547;-59
2021/03/29 06:23:19;;;;;;;10.23;2.77;;;11.50;90.20;;;10.21;100.00;101593.66;4959563;28;101537;-59
2021/03/29 06:26:51;;;;;;;5.93;2.30;;;11.60;90.20;;;10.27;100.00;101588.66;4964503;28;100696;-59
2021/03/29 06:30:02;;;;;;;5.50;2.30;;;11.70;88.50;;;10.30;100.00;101591.09;4959551;28;100202;-60
2021/03/29 06:33:30;;;;;;;7.40;2.83;;;11.80;88.80;;;10.43;100.00;101602.50;4958514;28;100437;-60
2021/03/29 06:36:57;;;;;;;6.47;2.60;;;11.80;88.00;;;10.54;100.00;101617.66;4955896;28;101678;-59
2021/03/29 06:40:12;;;;;;;9.10;2.60;;;12.00;86.70;;;10.66;100.00;101619.31;4963620;28;100614;-59
2021/03/29 06:43:51;;;;;;;7.33;2.77;;;12.10;85.80;;;10.81;100.00;101617.22;4959236;28;100159;-58
2021/03/29 06:47:41;;;;;;;7.90;2.70;;;12.20;83.40;;;11.01;100.00;101620.91;4941164;28;100590;-59
2021/03/29 06:50:54;;;;;;;3.43;1.90;;;12.30;83.70;;;11.02;100.00;101612.75;4882017;28;100909;-60
2021/03/29 06:54:12;;;;;;;6.70;2.70;;;12.50;81.60;;;11.27;100.00;101610.66;4963763;28;101164;-61
2021/03/29 06:57:24;;;;;;;6.83;2.50;;;12.60;80.40;;;11.43;100.00;101611.91;4960471;28;100069;-59
2021/03/29 07:00:46;;;;;;;6.77;2.43;;;12.80;79.60;;;11.45;100.00;101623.34;4957187;28;100524;-59
2021/03/29 07:03:57;;;;;;;3.83;2.70;;;13.00;78.00;;;11.50;100.00;101618.44;4962808;28;101476;-59
2021/03/29 07:11:18;;;;;;;6.53;2.70;;;13.30;74.50;;;11.49;100.00;101632.84;4950039;28;100520;-59
2021/03/29 07:17:59;;;;;;;7.20;2.47;;;13.40;71.00;;;11.62;100.00;101637.97;4960703;28;101760;-61
2021/03/29 07:21:11;;;;;;;7.87;2.33;;;13.40;71.20;;;11.68;100.00;101641.97;4962737;28;101241;-58
2021/03/29 07:24:23;;;;;;;5.00;2.20;;;13.50;71.50;;;11.68;100.00;101641.97;4961800;28;100230;-59
2021/03/29 07:27:38;;;;;;;8.77;3.10;;;13.50;70.70;;;11.88;100.00;101639.28;4962208;28;100208;-59
2021/03/29 07:31:09;;;;;;;5.63;2.20;;;13.60;72.40;;;11.81;100.00;101637.28;4963693;28;101072;-61
2021/03/29 07:34:39;;;;;;;4.13;2.23;;;13.60;70.80;;;11.85;100.00;101642.25;4961773;28;100700;-60
2021/03/29 07:38:14;;;;;;;12.47;2.90;;;13.70;70.90;;;11.80;100.00;101651.66;4957956;28;100716;-60
2021/03/29 07:41:31;;;;;;;8.23;2.60;;;13.70;69.30;;;11.90;100.00;101654.41;4943974;28;100317;-58
2021/03/29 07:45:08;;;;;;;8.63;2.93;;;13.80;69.60;;;11.83;100.00;101652.25;4961662;28;101190;-59
2021/03/29 07:48:19;;;;;;;6.03;2.90;;;13.80;68.30;;;11.97;100.00;101660.94;4963647;28;100463;-59
2021/03/29 07:51:32;;;;;;;9.83;3.20;;;13.80;69.00;;;11.98;100.00;101668.00;4959415;28;100346;-61
2021/03/29 07:55:09;;;;;;;7.17;2.87;;;13.90;68.30;;;12.12;100.00;101671.16;4962961;28;100294;-60
2021/03/29 07:58:31;;;;;;;8.13;2.97;;;13.90;68.10;;;12.20;100.00;101673.19;4958089;28;100696;-60
2021/03/29 08:05:42;;;;;;;7.32;2.65;;;14.10;66.70;;;12.46;100.00;101674.41;4972826;28;100716;-59
2021/03/29 08:09:11;;;;;;;6.30;2.70;;;14.20;66.90;;;12.45;100.00;101661.13;4961465;28;100332;-61
2021/03/29 08:20:27;;;;;;;8.20;3.25;;;14.60;64.00;;;12.66;100.00;101674.44;4869838;28;100509;-59
2021/03/29 08:24:03;;;;;;;7.23;2.77;;;14.70;62.20;;;12.67;100.00;101681.53;4916560;28;100344;-61
2021/03/29 08:27:17;;;;;;;7.60;3.10;;;14.80;61.40;;;12.69;100.00;101679.56;4976097;28;101353;-58
2021/03/29 08:30:48;;;;;;;7.97;2.63;;;14.80;61.00;;;12.95;100.00;101680.75;4976054;28;101106;-60
2021/03/29 08:34:02;;;;;;;7.32;2.60;;;14.90;61.40;;;12.99;100.00;101671.38;4982112;28;100205;-61
2021/03/29 08:37:14;;;;;;;7.90;2.85;;;14.90;61.30;;;13.16;100.00;101686.00;4982107;28;100433;-59
2021/03/29 08:40:32;;;;;;;7.45;2.92;;;15.00;60.70;;;13.36;100.00;101676.94;4981922;28;100854;-60
2021/03/29 08:43:43;;;;;;;11.52;3.65;;;15.20;60.10;;;13.84;100.00;101684.13;4979086;27;100911;-60
2021/03/29 08:46:55;;;;;;;6.47;3.08;;;15.60;59.40;;;13.71;100.00;101678.19;4982213;28;100345;-59
2021/03/29 08:50:08;;;;;;;10.02;4.07;;;15.90;58.00;;;13.76;100.00;101673.22;4982215;28;100287;-60
2021/03/29 08:53:31;;;;;;;9.27;3.63;;;16.20;57.30;;;13.68;100.00;101671.25;4981500;28;101596;-60
2021/03/29 08:56:48;;;;;;;7.65;3.97;;;16.40;56.10;;;13.65;100.00;101653.56;4981701;28;101274;-60
2021/03/29 09:00:01;;;;;;;7.80;3.42;;;16.50;55.20;;;13.64;100.00;101673.38;4978886;28;101002;-61
2021/03/29 09:03:12;;;;;;;9.98;3.88;;;16.50;54.80;;;13.68;100.00;101657.81;4961708;28;100453;-61
2021/03/29 09:06:40;;;;;;;10.95;3.88;;;16.50;54.20;;;13.76;100.00;101676.75;4976700;28;100119;-60
2021/03/29 09:09:53;;;;;;;9.23;3.63;;;16.50;54.10;;;13.94;100.00;101676.84;4981054;28;100260;-60
2021/03/29 09:13:10;;;;;;;8.35;3.72;;;16.60;54.60;;;13.51;100.00;101677.34;4978759;28;100274;-60
2021/03/29 09:16:23;;;;;;;7.32;3.15;;;16.60;53.60;;;13.74;100.00;101678.72;4981510;28;100687;-61
2021/03/29 09:19:43;;;;;;;8.10;3.53;;;16.50;54.30;;;13.91;100.00;101678.00;4980878;28;101451;-58
2021/03/29 09:23:01;;;;;;;8.77;3.72;;;16.50;54.80;;;13.98;100.00;101679.09;4976427;28;101494;-59
2021/03/29 09:26:13;;;;;;;7.90;3.88;;;16.50;54.80;;;14.25;100.00;101680.13;4980522;28;100044;-60
2021/03/29 09:33:04;;;;;;;9.13;3.88;;;16.90;55.00;;;14.54;100.00;101680.88;4966654;28;101133;-60
2021/03/29 09:36:24;;;;;;;9.50;3.80;;;17.30;53.60;;;14.45;100.00;101671.03;4980915;28;101467;-59
2021/03/29 09:43:27;;;;;;;10.65;3.78;;;17.60;51.60;;;14.37;100.00;101673.56;4981749;28;100528;-61
2021/03/29 09:46:44;;;;;;;9.45;3.65;;;17.50;51.40;;;14.35;100.00;101662.09;4975517;28;100625;-58
2021/03/29 09:50:12;;;;;;;9.65;3.65;;;17.40;51.20;;;14.60;100.00;101664.09;4971800;28;101952;-59
2021/03/29 09:53:40;;;;;;;8.52;3.90;;;17.50;51.70;;;14.33;100.00;101667.66;4979352;28;100265;-61
2021/03/29 09:56:58;;;;;;;8.23;3.35;;;17.40;51.30;;;14.38;100.00;101668.03;4981186;28;100156;-61
2021/03/29 10:03:43;;;;;;;10.43;4.30;;;17.30;52.00;;;14.23;100.00;101674.03;4977559;28;100591;-60
2021/03/29 10:07:01;;;;;;;8.98;3.83;;;17.20;52.20;;;14.03;100.00;101670.59;4979905;28;100158;-59
2021/03/29 10:10:18;;;;;;;7.35;3.17;;;17.00;52.30;;;14.07;100.00;101672.00;4981258;28;100400;-59
2021/03/29 10:13:39;;;;;;;9.93;3.65;;;16.80;52.90;;;13.73;100.00;101662.72;4980348;28;101694;-60
2021/03/29 10:17:01;;;;;;;15.32;5.18;;;16.70;53.00;;;13.76;100.00;101652.53;4978925;28;101281;-59
2021/03/29 10:20:22;;;;;;;8.32;3.60;;;16.50;53.60;;;13.62;100.00;101634.16;4981242;28;100397;-60
2021/03/29 10:23:55;;;;;;;8.95;3.83;;;16.30;53.90;;;13.64;100.00;101624.97;4975910;28;100481;-59
2021/03/29 10:27:13;;;;;;;8.90;4.60;;;16.10;54.70;;;13.86;100.00;101615.69;4979938;28;101000;-61
2021/03/29 10:30:33;;;;;;;11.48;4.30;;;16.00;55.60;;;13.76;100.00;101619.41;4980467;28;101492;-61
2021/03/29 10:33:44;;;;;;;11.10;4.40;;;16.00;54.60;;;13.85;100.00;101631.97;4980882;28;100341;-59
2021/03/29 10:36:56;;;;;;;10.88;3.80;;;16.00;54.70;;;13.86;100.00;101634.53;4979989;28;100090;-60
2021/03/29 10:40:09;;;;;;;10.73;3.70;;;16.00;54.70;;;14.04;100.00;101637.31;4976036;28;100814;-58
2021/03/29 10:43:20;;;;;;;12.07;3.83;;;16.00;55.10;;;14.16;100.00;101633.41;4979742;28;101337;-60
2021/03/29 10:46:33;;;;;;;9.48;3.45;;;16.10;55.10;;;14.37;100.00;101630.47;4960967;28;100220;-59
2021/03/29 10:49:44;;;;;;;6.22;3.60;;;16.30;55.20;;;14.41;100.00;101647.22;4980822;28;100486;-60
2021/03/29 10:52:56;;;;;;;12.45;4.65;;;16.40;55.20;;;14.23;100.00;101636.34;4960332;28;101692;-60
2021/03/29 10:56:07;;;;;;;5.38;3.40;;;16.50;54.40;;;14.09;100.00;101636.88;4980465;28;100671;-58
2021/03/29 10:59:18;;;;;;;9.35;3.90;;;16.50;53.50;;;14.20;100.00;101633.97;4973295;28;100365;-59
2021/03/29 11:02:31;;;;;;;9.10;4.22;;;16.50;53.70;;;14.12;100.00;101637.41;4979365;28;100397;-60
2021/03/29 11:05:42;;;;;;;8.43;3.60;;;16.50;53.80;;;14.40;100.00;101632.06;4980691;28;102205;-60
2021/03/29 11:08:53;;;;;;;7.03;3.53;;;16.60;53.70;;;14.70;100.00;101620.97;4981813;28;101270;-60
2021/03/29 11:12:04;;;;;;;9.57;4.07;;;16.90;53.30;;;14.91;100.00;101604.50;4981622;28;100369;-60
2021/03/29 11:15:16;;;;;;;12.43;3.95;;;17.30;52.70;;;15.21;100.00;101605.91;4983891;28;100647;-62
2021/03/29 11:18:28;;;;;;;7.28;3.08;;;17.80;52.00;;;15.55;100.00;101633.88;4983540;28;102053;-61
2021/03/29 11:21:39;;;;;;;7.10;3.15;;;18.30;50.50;;;15.67;100.00;101615.56;4983027;28;100365;-60
2021/03/29 11:24:51;;;;;;;8.93;3.28;;;18.80;49.00;;;15.94;100.00;101618.09;4983600;27;100071;-61
2021/03/29 11:28:02;;;;;;;7.40;3.05;;;19.10;48.60;;;15.80;100.00;101614.13;4983245;28;100485;-59
2021/03/29 11:31:13;;;;;;;8.27;3.20;;;19.40;47.30;;;15.85;100.00;101607.41;4983024;28;100699;-59
2021/03/29 11:34:25;;;;;;;10.05;3.30;;;19.70;46.40;;;15.63;100.00;101609.63;4976219;28;100564;-59
2021/03/29 11:37:37;;;;;;;5.47;2.90;;;19.80;46.30;;;15.64;100.00;101615.88;4980529;28;100243;-59
2021/03/29 11:41:00;;;;;;;6.47;3.30;;;19.80;45.60;;;16.25;100.00;101618.41;4982767;28;100337;-60
2021/03/29 11:44:12;;;;;;;4.97;2.88;;;20.00;46.20;;;16.11;100.00;101605.50;4982096;28;100252;-60
2021/03/29 11:47:24;;;;;;;9.13;3.53;;;20.30;45.20;;;16.03;100.00;101606.31;4983119;28;100311;-60
2021/03/29 11:50:37;;;;;;;6.70;3.50;;;20.50;44.90;;;15.71;100.00;101616.94;4986168;28;100291;-60
2021/03/29 11:53:48;;;;;;;7.13;3.40;;;20.30;45.30;;;15.82;100.00;101614.81;4983233;28;100391;-61
2021/03/29 11:57:05;;;;;;;9.38;3.15;;;20.10;45.60;;;15.53;100.00;101613.41;4982944;28;100827;-61
2021/03/29 12:00:20;;;;;;;6.85;3.70;;;19.80;45.70;;;15.34;100.00;101609.03;4983216;28;100582;-61
2021/03/29 12:03:35;;;;;;;8.45;3.28;;;19.40;46.20;;;15.09;100.00;101605.31;4975204;28;100893;-60
2021/03/29 12:06:51;;;;;;;8.27;3.90;;;18.90;46.50;;;14.96;100.00;101610.28;4981938;28;101487;-61
2021/03/29 12:13:20;;;;;;;8.13;3.80;;;18.20;47.80;;;14.95;100.00;101604.03;4942417;28;100910;-61
2021/03/29 12:16:38;;;;;;;6.43;3.60;;;18.00;48.40;;;15.02;100.00;101601.56;4981771;28;100376;-61
2021/03/29 12:19:50;;;;;;;9.38;3.85;;;17.80;48.80;;;15.21;100.00;101605.91;4975422;28;100343;-60
2021/03/29 12:23:04;;;;;;;5.88;3.65;;;17.70;49.40;;;15.22;100.00;101604.91;4981432;28;101817;-61
2021/03/29 12:26:19;;;;;;;7.68;3.58;;;17.70;49.80;;;15.10;100.00;101617.78;4975554;28;100697;-61
2021/03/29 12:29:38;;;;;;;9.05;3.88;;;17.70;49.80;;;15.24;100.00;101617.25;4983059;28;100572;-59
2021/03/29 12:32:50;;;;;;;8.02;3.58;;;17.70;50.50;;;15.12;100.00;101615.78;4982135;28;100040;-60
2021/03/29 12:36:01;;;;;;;8.25;3.80;;;17.70;50.40;;;15.18;100.00;101615.19;4961498;28;103880;-61
2021/03/29 12:39:19;;;;;;;9.55;3.70;;;17.70;50.10;;;15.13;100.00;101595.91;4982555;28;100615;-60
2021/03/29 12:42:34;;;;;;;12.32;3.70;;;17.70;50.20;;;15.13;100.00;101595.06;4981813;28;100231;-60
2021/03/29 12:45:59;;;;;;;8.45;3.83;;;17.70;50.40;;;15.10;100.00;101585.44;4980951;28;100394;-61
2021/03/29 12:49:10;;;;;;;9.65;3.78;;;17.60;50.30;;;15.06;100.00;101592.16;4981282;28;102152;-59
2021/03/29 12:52:53;;;;;;;8.73;3.92;;;17.60;50.70;;;15.05;100.00;101582.38;4981271;28;100557;-60
2021/03/29 12:56:05;;;;;;;10.25;4.40;;;17.50;50.70;;;15.04;100.00;101573.44;4889865;28;100747;-60
2021/03/29 12:59:16;;;;;;;6.90;3.88;;;17.40;50.50;;;15.50;100.00;101575.97;4891242;28;100383;-59
2021/03/29 13:02:27;;;;;;;9.35;4.28;;;17.40;51.50;;;15.61;100.00;101579.25;4981721;27;100571;-61
2021/03/29 13:05:54;;;;;;;8.43;3.60;;;17.50;51.70;;;15.66;100.00;101571.56;4981506;28;101285;-59
2021/03/29 13:09:09;;;;;;;9.43;4.55;;;17.60;51.60;;;15.78;100.00;101570.25;4980115;28;100512;-60
2021/03/29 13:12:24;;;;;;;9.68;4.25;;;17.80;51.60;;;15.87;100.00;101564.91;4975926;28;100613;-61
2021/03/29 13:15:44;;;;;;;8.30;4.18;;;18.00;51.20;;;15.99;100.00;101566.31;4980949;27;101683;-59
2021/03/29 13:18:56;;;;;;;8.82;4.00;;;18.10;50.60;;;15.93;100.00;101556.16;4981234;28;101474;-61
2021/03/29 13:22:40;;;;;;;7.53;4.13;;;18.20;50.50;;;15.99;100.00;101550.09;4980627;28;100307;-61
2021/03/29 13:25:53;;;;;;;8.27;4.53;;;18.30;50.70;;;15.87;100.00;101533.34;4942767;28;100242;-60
2021/03/29 13:29:07;;;;;;;7.97;3.72;;;18.30;49.90;;;15.95;100.00;101554.16;4977798;28;100693;-60
2021/03/29 13:32:18;;;;;;;10.98;4.63;;;18.30;50.30;;;16.09;100.00;101540.00;4980378;28;101136;-60
2021/03/29 13:35:30;;;;;;;11.07;4.32;;;18.40;50.30;;;16.07;100.00;101536.66;4978205;28;100158;-59
2021/03/29 13:38:41;;;;;;;8.32;4.25;;;18.40;50.50;;;16.35;100.00;101546.16;4974916;28;100283;-60
2021/03/29 13:42:00;;;;;;;10.32;3.88;;;18.50;50.60;;;16.52;100.00;101529.00;4980689;28;100492;-61
2021/03/29 13:45:13;;;;;;;8.65;4.15;;;18.50;50.60;;;16.65;100.00;101535.78;4972398;28;100841;-60
2021/03/29 13:48:31;;;;;;;10.13;3.92;;;18.70;49.70;;;17.19;100.00;101542.38;4982048;28;100113;-61
2021/03/29 13:51:44;;;;;;;7.53;3.70;;;19.00;50.00;;;17.50;100.00;101515.44;4962789;28;100645;-60
2021/03/29 13:58:17;;;;;;;7.28;4.03;;;19.70;48.50;;;17.55;100.00;101530.16;4973819;28;100320;-61
2021/03/29 14:01:29;;;;;;;7.72;3.95;;;19.80;49.00;;;17.45;100.00;101523.22;4962509;28;100239;-60
2021/03/29 14:04:42;;;;;;;5.80;3.58;;;20.00;48.30;;;17.62;100.00;101529.44;4981438;28;100527;-60
2021/03/29 14:08:05;;;;;;;11.68;4.00;;;20.20;47.90;;;17.58;100.00;101521.66;4974283;28;100388;-62
2021/03/29 14:11:17;;;;;;;9.13;3.92;;;20.40;47.70;;;17.83;100.00;101516.19;4978357;28;100429;-61
2021/03/29 14:14:28;;;;;;;7.18;4.10;;;20.50;47.50;;;17.99;100.00;101515.28;4980721;28;100183;-60
2021/03/29 14:17:40;;;;;;;8.68;4.22;;;20.80;46.90;;;18.16;100.00;101506.91;4980582;28;100091;-60
2021/03/29 14:20:52;;;;;;;8.50;3.90;;;21.00;46.60;;;17.77;100.00;101500.66;4980565;28;100725;-61
2021/03/29 14:24:03;;;;;;;8.00;3.33;;;21.10;45.90;;;17.90;100.00;101493.66;4976298;28;101202;-60
2021/03/29 14:27:14;;;;;;;8.43;4.35;;;21.00;46.10;;;18.17;100.00;101502.34;4980473;28;100369;-61
2021/03/29 14:30:26;;;;;;;7.72;3.72;;;21.00;46.40;;;18.34;100.00;101505.75;4941284;28;100239;-60
2021/03/29 14:33:41;;;;;;;10.45;4.32;;;21.10;46.40;;;18.27;100.00;101500.22;4979382;28;101708;-61
2021/03/29 14:47:54;;;;;;;9.38;3.83;;;21.50;45.10;;;18.16;100.00;101481.69;4905054;28;101013;-62
2021/03/29 14:51:07;;;;;;;8.32;3.75;;;21.40;45.10;;;18.32;100.00;101478.84;4914936;28;100474;-60
2021/03/29 14:54:24;;;;;;;9.02;4.47;;;21.30;45.30;;;18.14;100.00;101467.47;4920934;28;100569;-62
2021/03/29 14:57:49;;;;;;;6.63;3.67;;;21.20;44.30;;;18.27;100.00;101473.13;4977387;28;100365;-60
2021/03/29 15:01:01;;;;;;;8.55;3.50;;;21.00;45.10;;;18.40;100.00;101467.13;4983145;28;100692;-60
2021/03/29 15:04:12;;;;;;;7.25;3.42;;;20.80;45.30;;;18.52;100.00;101471.09;4983408;28;100868;-61
2021/03/29 15:07:24;;;;;;;7.93;3.65;;;20.80;45.30;;;18.61;100.00;101470.03;4983962;28;100194;-60
2021/03/29 15:14:12;;;;;;;6.78;3.50;;;21.00;44.30;;;18.74;100.00;101469.41;4958306;28;100454;-60
2021/03/29 15:17:24;;;;;;;4.45;2.70;;;21.00;44.00;;;18.97;100.00;101472.94;4985772;28;100566;-60
2021/03/29 15:20:35;;;;;;;4.03;2.88;;;21.10;44.40;;;18.84;100.00;101468.13;4978407;28;100263;-60
2021/03/29 15:24:10;;;;;;;7.78;3.25;;;21.20;43.60;;;18.69;100.00;101464.53;4984717;28;100182;-61
2021/03/29 15:30:55;;;;;;;4.18;2.90;;;21.10;43.30;;;18.63;100.00;101471.53;4950473;28;100345;-61
2021/03/29 15:34:18;;;;;;;6.70;3.58;;;20.90;43.60;;;18.29;100.00;101466.53;4980876;28;99799;-61
2021/03/29 15:37:30;;;;;;;4.78;3.22;;;20.70;43.70;;;18.53;100.00;101462.78;4984146;28;99967;-61
2021/03/29 15:40:43;;;;;;;5.78;3.42;;;20.50;44.50;;;18.67;100.00;101467.41;4976659;28;100796;-62
2021/03/29 15:43:56;;;;;;;7.53;3.35;;;20.50;45.10;;;18.83;100.00;101473.75;4979552;28;100575;-61
2021/03/29 15:47:12;;;;;;;7.95;3.80;;;20.40;45.30;;;18.73;100.00;101470.44;4984539;28;99843;-60
2021/03/29 15:50:24;;;;;;;8.38;4.13;;;20.40;45.60;;;18.45;100.00;101472.81;4981926;28;99918;-61
2021/03/29 15:54:00;;;;;;;8.25;3.50;;;20.30;45.90;;;18.16;100.00;101471.69;4983202;27;100232;-61
2021/03/29 16:00:41;;;;;;;5.65;3.22;;;20.00;46.30;;;18.07;100.00;101475.44;4907115;28;100182;-62
2021/03/29 16:10:53;;;;;;;8.82;4.30;;;19.80;47.70;;;18.16;100.00;101476.25;4975491;28;100219;-62
2021/03/29 16:14:06;;;;;;;8.68;4.07;;;19.80;46.50;;;18.13;100.00;101485.59;4979151;28;100006;-62
2021/03/29 16:17:17;;;;;;;8.23;4.57;;;19.70;45.90;;;18.13;100.00;101484.75;4982575;28;100185;-61
2021/03/29 16:20:29;;;;;;;9.50;5.82;;;19.70;44.90;;;18.10;100.00;101487.78;4978322;28;100648;-60
2021/03/29 16:23:41;;;;;;;9.68;4.10;;;19.70;44.90;;;18.03;100.00;101482.25;4982647;28;100048;-62